createdAt,value
2019-03-19T00:00:55.574Z,14.07
2019-03-19T00:03:26.000Z,14.03
2019-03-19T00:05:56.306Z,13.57
2019-03-19T00:08:26.671Z,13.60
2019-03-19T00:10:57.315Z,13.63
2019-03-19T00:13:27.706Z,13.60
2019-03-19T00:15:58.104Z,14.50
2019-03-19T00:18:28.538Z,13.50
2019-03-19T00:20:58.914Z,14.40
2019-03-19T00:23:29.852Z,12.50
2019-03-19T00:26:00.252Z,12.97
2019-03-19T00:28:30.600Z,13.37
2019-03-19T00:31:01.032Z,13.03
2019-03-19T00:33:31.384Z,13.43
2019-03-19T00:36:01.821Z,12.23
2019-03-19T00:38:34.212Z,12.83
2019-03-19T00:41:04.577Z,12.10
2019-03-19T00:43:34.952Z,12.40
2019-03-19T00:46:05.351Z,11.67
2019-03-19T00:48:35.696Z,12.10
2019-03-19T00:51:06.102Z,11.97
2019-03-19T00:53:36.476Z,11.27
2019-03-19T00:56:06.834Z,12.80
2019-03-19T00:58:37.202Z,11.97
2019-03-19T01:01:08.708Z,12.93
2019-03-19T01:03:39.548Z,11.73
2019-03-19T01:06:09.946Z,11.17
2019-03-19T01:08:40.274Z,12.53
2019-03-19T01:11:10.704Z,11.60
2019-03-19T01:13:41.130Z,11.33
2019-03-19T01:16:11.534Z,11.60
2019-03-19T01:18:41.961Z,12.47
2019-03-19T01:21:12.339Z,11.50
2019-03-19T01:23:42.680Z,11.50
2019-03-19T01:26:13.065Z,12.40
2019-03-19T01:28:43.539Z,12.53
2019-03-19T01:31:13.884Z,13.40
2019-03-19T01:33:44.255Z,10.47
2019-03-19T01:36:14.680Z,10.73
2019-03-19T01:38:45.130Z,11.23
2019-03-19T01:41:15.504Z,10.13
2019-03-19T01:43:45.840Z,12.20
2019-03-19T01:46:16.226Z,11.23
2019-03-19T01:48:46.536Z,13.27
2019-03-19T01:51:16.976Z,11.03
2019-03-19T01:53:47.362Z,12.27
2019-03-19T01:56:18.343Z,10.57
2019-03-19T01:58:50.383Z,11.87
2019-03-19T02:01:20.790Z,10.77
2019-03-19T02:03:51.258Z,10.70
2019-03-19T02:06:21.683Z,10.67
2019-03-19T02:08:52.056Z,10.47
2019-03-19T02:11:22.404Z,11.23
2019-03-19T02:13:52.824Z,10.53
2019-03-19T02:16:23.181Z,10.90
2019-03-19T02:18:53.744Z,10.00
2019-03-19T02:21:24.211Z,10.17
2019-03-19T02:23:54.624Z,10.03
2019-03-19T02:26:25.120Z,11.03
2019-03-19T02:28:55.858Z,11.27
2019-03-19T02:31:26.224Z,9.53
2019-03-19T02:33:56.616Z,10.27
2019-03-19T02:36:27.124Z,10.00
2019-03-19T02:38:57.714Z,9.17
2019-03-19T02:41:28.026Z,9.83
2019-03-19T02:43:58.395Z,10.30
2019-03-19T02:46:28.755Z,9.63
2019-03-19T02:48:59.108Z,9.70
2019-03-19T02:51:29.534Z,10.20
2019-03-19T02:53:59.915Z,9.97
2019-03-19T02:56:33.017Z,8.77
2019-03-19T02:59:02.236Z,10.80
2019-03-19T03:01:34.280Z,10.10
2019-03-19T03:04:04.591Z,10.23
2019-03-19T03:06:35.287Z,9.73
2019-03-19T03:09:07.407Z,10.00
2019-03-19T03:11:37.763Z,9.00
2019-03-19T03:14:08.127Z,9.07
2019-03-19T03:16:38.492Z,9.47
2019-03-19T03:19:08.830Z,9.73
2019-03-19T03:21:39.171Z,9.33
2019-03-19T03:24:09.514Z,9.33
2019-03-19T03:26:47.776Z,9.27
2019-03-19T03:29:11.863Z,9.73
2019-03-19T03:31:42.229Z,10.30
2019-03-19T03:34:12.743Z,8.97
2019-03-19T03:36:43.083Z,9.17
2019-03-19T03:39:13.720Z,9.30
2019-03-19T03:41:45.047Z,9.67
2019-03-19T03:44:15.352Z,8.43
2019-03-19T03:46:45.705Z,10.17
2019-03-19T03:49:18.039Z,9.03
2019-03-19T03:51:48.455Z,9.10
2019-03-19T03:54:18.847Z,9.30
2019-03-19T03:57:01.176Z,10.27
2019-03-19T03:59:21.979Z,9.13
2019-03-19T04:01:52.332Z,8.23
2019-03-19T04:04:22.700Z,10.53
2019-03-19T04:06:53.047Z,7.87
2019-03-19T04:09:23.381Z,8.20
2019-03-19T04:11:53.809Z,9.00
2019-03-19T04:14:24.228Z,8.20
2019-03-19T04:16:54.638Z,8.83
2019-03-19T04:19:25.004Z,7.77
2019-03-19T04:21:55.324Z,7.33
2019-03-19T04:24:25.876Z,8.53
2019-03-19T04:26:56.239Z,7.97
2019-03-19T04:29:26.604Z,9.03
2019-03-19T04:31:56.960Z,8.77
2019-03-19T04:34:27.308Z,8.17
2019-03-19T04:36:58.913Z,9.90
2019-03-19T04:39:29.531Z,7.07
2019-03-19T04:41:59.889Z,8.03
2019-03-19T04:44:30.242Z,9.40
2019-03-19T04:47:00.553Z,10.37
2019-03-19T04:49:31.089Z,8.63
2019-03-19T04:52:01.442Z,7.73
2019-03-19T04:54:31.859Z,8.00
2019-03-19T04:57:02.161Z,7.53
2019-03-19T04:59:33.732Z,8.87
2019-03-19T05:02:03.967Z,8.33
2019-03-19T05:04:34.353Z,8.37
2019-03-19T05:07:04.665Z,7.40
2019-03-19T05:09:35.037Z,8.20
2019-03-19T05:12:05.461Z,8.10
2019-03-19T05:14:35.920Z,9.00
2019-03-19T05:17:06.407Z,7.83
2019-03-19T05:19:36.783Z,7.50
2019-03-19T05:22:07.124Z,7.23
2019-03-19T05:24:37.515Z,8.10
2019-03-19T05:27:08.736Z,7.13
2019-03-19T05:29:39.815Z,8.20
2019-03-19T05:32:10.309Z,8.47
2019-03-19T05:34:40.696Z,7.90
2019-03-19T05:37:11.371Z,7.33
2019-03-19T05:39:41.773Z,10.17
2019-03-19T05:42:12.109Z,7.70
2019-03-19T05:44:43.919Z,7.93
2019-03-19T05:47:14.293Z,8.10
2019-03-19T05:49:45.699Z,7.20
2019-03-19T05:52:16.056Z,7.60
2019-03-19T05:54:46.917Z,6.07
2019-03-19T05:57:17.627Z,8.30
2019-03-19T05:59:48.200Z,7.43
2019-03-19T06:02:19.029Z,7.90
2019-03-19T06:04:50.025Z,6.33
2019-03-19T06:07:20.511Z,6.80
2019-03-19T06:09:51.627Z,8.03
2019-03-19T06:12:22.787Z,7.47
2019-03-19T06:14:53.251Z,6.57
2019-03-19T06:17:23.891Z,7.07
2019-03-19T06:19:54.272Z,7.67
2019-03-19T06:22:24.638Z,6.53
2019-03-19T06:24:55.030Z,8.43
2019-03-19T06:27:25.463Z,6.70
2019-03-19T06:29:55.859Z,7.10
2019-03-19T06:32:26.260Z,7.47
2019-03-19T06:34:56.629Z,7.47
2019-03-19T06:37:27.387Z,7.33
2019-03-19T06:39:57.753Z,7.30
2019-03-19T06:42:28.298Z,6.60
2019-03-19T06:44:58.891Z,6.67
2019-03-19T06:47:29.251Z,8.10
2019-03-19T06:49:59.657Z,6.17
2019-03-19T06:52:30.053Z,6.07
2019-03-19T06:55:00.516Z,6.43
2019-03-19T06:57:38.893Z,7.77
2019-03-19T07:00:03.580Z,7.03
2019-03-19T07:02:33.942Z,8.07
2019-03-19T07:05:05.577Z,8.87
2019-03-19T07:07:35.901Z,8.57
2019-03-19T07:10:07.191Z,7.20
2019-03-19T07:12:37.591Z,7.83
2019-03-19T07:15:09.592Z,8.07
2019-03-19T07:17:39.935Z,8.67
2019-03-19T07:20:11.941Z,7.67
2019-03-19T07:22:44.162Z,8.37
2019-03-19T07:25:14.707Z,9.47
2019-03-19T07:27:45.082Z,8.33
2019-03-19T07:30:17.376Z,9.60
2019-03-19T07:32:47.793Z,9.80
2019-03-19T07:35:18.162Z,9.77
2019-03-19T07:37:48.463Z,9.80
2019-03-19T07:40:19.739Z,10.50
2019-03-19T07:42:50.023Z,9.77
2019-03-19T07:45:21.491Z,8.30
2019-03-19T07:47:51.948Z,10.40
2019-03-19T07:50:22.296Z,9.20
2019-03-19T07:52:52.643Z,9.50
2019-03-19T07:55:23.022Z,10.20
2019-03-19T07:57:53.391Z,12.27
2019-03-19T08:00:24.047Z,20.83
2019-03-19T08:02:54.613Z,12.43
2019-03-19T08:05:33.067Z,10.90
2019-03-19T08:07:56.989Z,10.87
2019-03-19T08:10:27.360Z,8.87
2019-03-19T08:12:57.781Z,9.03
2019-03-19T08:15:28.066Z,8.90
2019-03-19T08:17:58.489Z,8.30
2019-03-19T08:20:33.394Z,7.57
2019-03-19T08:23:03.841Z,6.90
2019-03-19T08:25:34.228Z,7.50
2019-03-19T08:28:05.907Z,7.10
2019-03-19T08:30:36.487Z,7.27
2019-03-19T08:33:07.358Z,6.43
2019-03-19T08:35:38.119Z,5.83
2019-03-19T08:38:09.074Z,5.77
2019-03-19T08:40:39.897Z,5.73
2019-03-19T08:43:10.301Z,6.93
2019-03-19T08:45:40.840Z,5.53
2019-03-19T08:48:11.304Z,6.40
2019-03-19T08:50:41.918Z,6.43
2019-03-19T08:53:12.431Z,6.53
2019-03-19T08:55:42.864Z,6.43
2019-03-19T08:58:13.302Z,6.57
2019-03-19T09:00:43.792Z,5.60
2019-03-19T09:03:14.418Z,6.70
2019-03-19T09:05:44.808Z,8.10
2019-03-19T09:08:15.337Z,6.53
2019-03-19T09:10:45.705Z,7.87
2019-03-19T09:13:16.324Z,7.17
2019-03-19T09:15:47.374Z,8.90
2019-03-19T09:18:19.510Z,8.90
2019-03-19T09:20:50.660Z,6.87
2019-03-19T09:23:21.087Z,8.73
2019-03-19T09:25:51.550Z,7.83
2019-03-19T09:28:21.937Z,8.87
2019-03-19T09:30:53.447Z,9.30
2019-03-19T09:33:24.069Z,8.10
2019-03-19T09:35:54.408Z,62.87
2019-03-19T09:38:24.905Z,9.13
2019-03-19T09:40:57.568Z,9.40
2019-03-19T09:43:28.172Z,7.13
2019-03-19T09:45:58.497Z,8.87
2019-03-19T09:48:29.004Z,7.70
2019-03-19T09:50:59.744Z,8.07
2019-03-19T09:53:30.112Z,9.33
2019-03-19T09:56:02.822Z,8.27
2019-03-19T09:58:33.283Z,8.23
2019-03-19T10:01:04.003Z,8.70
2019-03-19T10:03:34.387Z,12.43
2019-03-19T10:06:13.908Z,8.23
2019-03-19T10:08:37.359Z,8.80
2019-03-19T10:11:07.831Z,8.13
2019-03-19T10:13:38.383Z,8.47
2019-03-19T10:16:08.816Z,8.37
2019-03-19T10:18:39.197Z,8.87
2019-03-19T10:21:09.603Z,9.50
2019-03-19T10:23:40.314Z,8.70
2019-03-19T10:26:11.133Z,8.20
2019-03-19T10:28:41.738Z,8.80
2019-03-19T10:31:12.346Z,8.40
2019-03-19T10:33:42.762Z,9.07
2019-03-19T10:36:13.345Z,7.67
2019-03-19T10:38:43.792Z,7.27
2019-03-19T10:41:14.124Z,8.30
2019-03-19T10:43:45.005Z,8.53
2019-03-19T10:46:15.736Z,10.27
2019-03-19T10:48:46.325Z,7.40
2019-03-19T10:51:17.667Z,7.67
2019-03-19T10:53:48.251Z,8.80
2019-03-19T10:56:18.660Z,9.10
2019-03-19T10:58:49.363Z,7.07
2019-03-19T11:01:19.717Z,7.73
2019-03-19T11:03:50.252Z,8.90
2019-03-19T11:06:22.082Z,8.10
2019-03-19T11:08:54.261Z,7.83
2019-03-19T11:11:24.798Z,9.35
2019-03-19T11:13:57.116Z,7.97
2019-03-19T11:16:27.472Z,7.92
2019-03-19T11:18:58.183Z,8.30
2019-03-19T11:21:31.373Z,8.83
2019-03-19T11:24:03.230Z,9.43
2019-03-19T11:26:35.908Z,10.47
2019-03-19T11:29:06.322Z,7.77
2019-03-19T11:31:36.663Z,7.13
2019-03-19T11:34:08.326Z,9.37
2019-03-19T11:36:39.179Z,10.10
2019-03-19T11:39:11.915Z,8.67
2019-03-19T11:41:42.363Z,9.13
2019-03-19T11:44:13.060Z,7.87
2019-03-19T11:46:45.315Z,8.13
2019-03-19T11:49:15.750Z,9.30
2019-03-19T11:51:46.198Z,9.43
2019-03-19T11:54:16.768Z,8.83
2019-03-19T11:56:47.694Z,9.50
2019-03-19T11:59:18.372Z,9.50
2019-03-19T12:01:49.832Z,11.33
2019-03-19T12:04:20.464Z,10.73
2019-03-19T12:06:51.032Z,10.17
2019-03-19T12:09:21.425Z,10.37
2019-03-19T12:11:52.369Z,10.83
2019-03-19T12:14:22.809Z,9.67
2019-03-19T12:16:53.376Z,10.67
2019-03-19T12:19:23.962Z,10.63
2019-03-19T12:21:54.420Z,10.97
2019-03-19T12:24:24.856Z,11.70
2019-03-19T12:26:57.056Z,9.90
2019-03-19T12:29:27.720Z,10.77
2019-03-19T12:31:58.120Z,12.50
2019-03-19T12:34:28.541Z,11.17
2019-03-19T12:36:59.176Z,11.80
2019-03-19T12:39:29.874Z,11.63
2019-03-19T12:42:00.447Z,13.33
2019-03-19T12:44:31.523Z,12.87
2019-03-19T12:47:01.764Z,11.90
2019-03-19T12:49:32.160Z,10.60
2019-03-19T12:52:02.658Z,10.73
2019-03-19T12:54:33.023Z,12.13
2019-03-19T12:57:03.374Z,11.90
2019-03-19T12:59:33.830Z,11.03
2019-03-19T13:02:04.298Z,11.93
2019-03-19T13:04:34.703Z,12.67
2019-03-19T13:07:05.059Z,11.53
2019-03-19T13:09:35.452Z,10.90
2019-03-19T13:12:05.808Z,9.93
2019-03-19T13:14:36.368Z,8.97
2019-03-19T13:17:08.680Z,9.90
2019-03-19T13:19:39.000Z,10.27
2019-03-19T13:22:09.314Z,10.10
2019-03-19T13:24:39.815Z,11.80
2019-03-19T13:27:10.566Z,10.07
2019-03-19T13:29:40.973Z,10.33
2019-03-19T13:32:11.405Z,10.17
2019-03-19T13:34:41.792Z,10.87
2019-03-19T13:37:12.536Z,10.80
2019-03-19T13:39:43.037Z,10.17
2019-03-19T13:42:13.440Z,11.60
2019-03-19T13:44:43.954Z,12.17
2019-03-19T13:47:14.590Z,10.70
2019-03-19T13:49:44.967Z,10.13
2019-03-19T13:52:15.430Z,10.03
2019-03-19T13:54:45.842Z,10.10
2019-03-19T13:57:16.252Z,10.70
2019-03-19T13:59:46.614Z,11.40
2019-03-19T14:02:17.174Z,10.30
2019-03-19T14:04:47.524Z,12.43
2019-03-19T14:07:17.906Z,12.07
2019-03-19T14:09:48.348Z,11.70
2019-03-19T14:12:19.114Z,11.63
2019-03-19T14:14:49.581Z,11.83
2019-03-19T14:17:21.802Z,13.10
2019-03-19T14:19:53.390Z,11.00
2019-03-19T14:22:23.823Z,13.03
2019-03-19T14:24:54.586Z,10.57
2019-03-19T14:27:24.984Z,12.27
2019-03-19T14:29:55.429Z,12.37
2019-03-19T14:32:26.107Z,10.67
2019-03-19T14:34:56.501Z,11.03
2019-03-19T14:37:27.365Z,9.63
2019-03-19T14:39:58.236Z,9.67
2019-03-19T14:42:28.629Z,9.90
2019-03-19T14:44:58.990Z,9.80
2019-03-19T14:47:29.712Z,9.97
2019-03-19T14:50:00.480Z,9.00
2019-03-19T14:52:31.269Z,10.43
2019-03-19T14:55:01.748Z,10.40
2019-03-19T14:57:32.889Z,10.70
2019-03-19T15:00:03.888Z,11.47
2019-03-19T15:02:35.335Z,11.47
2019-03-19T15:05:06.623Z,13.13
2019-03-19T15:07:37.293Z,13.37
2019-03-19T15:10:10.794Z,12.80
2019-03-19T15:12:41.306Z,12.93
2019-03-19T15:15:12.770Z,12.80
2019-03-19T15:17:43.617Z,12.77
2019-03-19T15:20:19.044Z,13.20
2019-03-19T15:22:49.528Z,12.97
2019-03-19T15:25:20.045Z,13.33
2019-03-19T15:27:50.443Z,12.80
2019-03-19T15:30:21.309Z,10.73
2019-03-19T15:32:52.447Z,11.77
2019-03-19T15:35:23.056Z,10.07
2019-03-19T15:37:53.474Z,11.10
2019-03-19T15:40:23.937Z,11.73
2019-03-19T15:42:54.301Z,9.73
2019-03-19T15:45:25.034Z,11.27
2019-03-19T15:47:57.442Z,10.67
2019-03-19T15:50:27.845Z,9.83
2019-03-19T15:52:58.216Z,10.20
2019-03-19T15:55:28.623Z,10.83
2019-03-19T15:57:59.073Z,10.17
2019-03-19T16:00:30.212Z,11.60
2019-03-19T16:03:00.890Z,11.67
2019-03-19T16:05:31.568Z,11.17
2019-03-19T16:08:01.948Z,10.70
2019-03-19T16:10:32.318Z,12.47
2019-03-19T16:13:02.841Z,11.27
2019-03-19T16:15:33.246Z,10.13
2019-03-19T16:18:05.859Z,11.47
2019-03-19T16:20:36.209Z,11.47
2019-03-19T16:23:06.581Z,12.63
2019-03-19T16:25:36.947Z,16.27
2019-03-19T16:28:07.374Z,16.93
2019-03-19T16:30:37.828Z,14.37
2019-03-19T16:33:08.182Z,12.20
2019-03-19T16:35:38.507Z,14.03
2019-03-19T16:38:08.848Z,14.23
2019-03-19T16:40:39.162Z,15.57
2019-03-19T16:43:09.532Z,15.80
2019-03-19T16:45:39.863Z,14.90
2019-03-19T16:48:10.216Z,15.70
2019-03-19T16:50:40.738Z,16.60
2019-03-19T16:53:11.089Z,17.27
2019-03-19T16:55:41.390Z,16.80
2019-03-19T16:58:12.186Z,17.10
2019-03-19T17:00:42.754Z,17.23
2019-03-19T17:03:13.187Z,16.77
2019-03-19T17:05:43.526Z,15.40
2019-03-19T17:08:13.852Z,17.60
2019-03-19T17:10:44.197Z,19.50
2019-03-19T17:13:14.624Z,17.97
2019-03-19T17:15:45.174Z,17.57
2019-03-19T17:18:15.610Z,16.57
2019-03-19T17:20:45.916Z,17.17
2019-03-19T17:23:16.347Z,20.47
2019-03-19T17:25:46.816Z,18.73
2019-03-19T17:28:22.558Z,21.40
2019-03-19T17:30:49.294Z,18.50
2019-03-19T17:33:19.762Z,20.00
2019-03-19T17:35:50.198Z,19.67
2019-03-19T17:38:20.634Z,18.27
2019-03-19T17:40:52.212Z,18.27
2019-03-19T17:43:23.156Z,19.83
2019-03-19T17:45:53.546Z,19.53
2019-03-19T17:48:23.914Z,17.97
2019-03-19T17:50:55.673Z,19.20
2019-03-19T17:53:26.937Z,21.20
2019-03-19T17:55:57.314Z,18.03
2019-03-19T17:58:27.725Z,16.27
2019-03-19T18:00:58.198Z,19.50
2019-03-19T18:03:28.716Z,18.10
2019-03-19T18:05:59.104Z,17.03
2019-03-19T18:08:29.528Z,19.83
2019-03-19T18:10:59.910Z,16.30
2019-03-19T18:13:30.412Z,17.53
2019-03-19T18:16:00.845Z,19.07
2019-03-19T18:18:31.199Z,18.87
2019-03-19T18:21:02.788Z,21.30
2019-03-19T18:23:33.164Z,22.47
2019-03-19T18:26:03.850Z,20.00
2019-03-19T18:28:34.523Z,17.93
2019-03-19T18:31:04.867Z,19.50
2019-03-19T18:33:35.466Z,18.87
2019-03-19T18:36:06.014Z,17.97
2019-03-19T18:38:36.413Z,18.13
2019-03-19T18:41:07.307Z,20.03
2019-03-19T18:43:37.796Z,18.93
2019-03-19T18:46:08.173Z,20.93
2019-03-19T18:48:38.640Z,19.50
2019-03-19T18:51:09.037Z,18.57
2019-03-19T18:53:39.592Z,20.53
2019-03-19T18:56:10.136Z,19.27
2019-03-19T18:58:40.679Z,19.83
2019-03-19T19:01:11.094Z,18.37
2019-03-19T19:03:41.403Z,17.67
2019-03-19T19:06:12.039Z,19.87
2019-03-19T19:08:42.487Z,16.50
2019-03-19T19:11:15.856Z,19.87
2019-03-19T19:13:46.554Z,19.20
2019-03-19T19:16:17.128Z,18.93
2019-03-19T19:18:47.708Z,19.07
2019-03-19T19:21:18.492Z,19.80
2019-03-19T19:23:48.895Z,19.07
2019-03-19T19:26:19.275Z,22.13
2019-03-19T19:28:49.712Z,20.53
2019-03-19T19:31:20.089Z,23.10
2019-03-19T19:33:54.351Z,22.17
2019-03-19T19:36:26.603Z,24.00
2019-03-19T19:38:56.967Z,25.63
2019-03-19T19:41:27.415Z,27.80
2019-03-19T19:43:57.860Z,25.73
2019-03-19T19:46:28.327Z,25.00
2019-03-19T19:48:58.783Z,28.47
2019-03-19T19:51:29.545Z,25.57
2019-03-19T19:53:59.997Z,24.57
2019-03-19T19:56:30.459Z,24.73
2019-03-19T19:59:01.265Z,26.00
2019-03-19T20:01:31.667Z,26.20
2019-03-19T20:04:02.428Z,26.03
2019-03-19T20:06:32.830Z,27.10
2019-03-19T20:09:03.816Z,26.07
2019-03-19T20:11:34.951Z,28.47
2019-03-19T20:14:05.439Z,27.90
2019-03-19T20:16:36.013Z,28.30
2019-03-19T20:19:06.449Z,29.03
2019-03-19T20:21:37.275Z,27.70
2019-03-19T20:24:08.087Z,30.17
2019-03-19T20:26:38.477Z,30.10
2019-03-19T20:29:09.051Z,33.50
2019-03-19T20:31:39.516Z,31.97
2019-03-19T20:34:10.225Z,32.43
2019-03-19T20:36:40.723Z,32.20
2019-03-19T20:39:11.189Z,29.43
2019-03-19T20:41:41.571Z,30.90
2019-03-19T20:44:11.994Z,29.00
2019-03-19T20:46:42.753Z,29.90
2019-03-19T20:49:13.083Z,30.40
2019-03-19T20:51:43.543Z,29.17
2019-03-19T20:54:15.770Z,29.90
2019-03-19T20:56:46.157Z,31.90
2019-03-19T20:59:17.794Z,31.50
2019-03-19T21:01:48.175Z,31.10
2019-03-19T21:04:18.758Z,30.73
2019-03-19T21:06:50.452Z,31.17
2019-03-19T21:09:21.334Z,30.67
2019-03-19T21:11:53.379Z,29.80
2019-03-19T21:14:25.248Z,30.40
2019-03-19T21:16:57.493Z,30.93
2019-03-19T21:19:28.165Z,52.37
2019-03-19T21:22:00.542Z,38.43
2019-03-19T21:24:30.679Z,31.77
2019-03-19T21:27:01.466Z,28.70
2019-03-19T21:29:31.844Z,31.77
2019-03-19T21:32:02.297Z,30.00
2019-03-19T21:34:32.799Z,31.33
2019-03-19T21:37:03.149Z,30.63
2019-03-19T21:39:33.478Z,29.93
2019-03-19T21:42:03.888Z,28.47
2019-03-19T21:44:34.268Z,29.07
2019-03-19T21:47:04.763Z,27.97
2019-03-19T21:49:35.110Z,29.77
2019-03-19T21:52:05.754Z,29.53
2019-03-19T21:54:36.317Z,30.20
2019-03-19T21:57:07.012Z,31.33
2019-03-19T21:59:37.407Z,29.00
2019-03-19T22:02:07.803Z,30.30
2019-03-19T22:04:38.137Z,30.67
2019-03-19T22:07:08.691Z,30.87
2019-03-19T22:09:39.053Z,32.37
2019-03-19T22:12:09.547Z,30.67
2019-03-19T22:14:40.010Z,31.50
2019-03-19T22:17:10.437Z,27.03
2019-03-19T22:19:40.996Z,30.70
2019-03-19T22:22:11.443Z,31.47
2019-03-19T22:24:41.779Z,29.07
2019-03-19T22:27:12.210Z,30.47
2019-03-19T22:29:42.587Z,32.13
2019-03-19T22:32:13.129Z,29.23
2019-03-19T22:34:43.805Z,30.60
2019-03-19T22:37:15.343Z,32.67
2019-03-19T22:39:45.715Z,29.17
2019-03-19T22:42:16.098Z,30.43
2019-03-19T22:44:46.446Z,35.30
2019-03-19T22:47:16.825Z,34.13
2019-03-19T22:49:47.277Z,35.53
2019-03-19T22:52:17.809Z,36.80
2019-03-19T22:54:48.311Z,40.97
2019-03-19T22:57:20.511Z,36.13
2019-03-19T22:59:50.904Z,38.77
2019-03-19T23:02:21.600Z,37.30
2019-03-19T23:04:51.977Z,38.13
2019-03-19T23:07:22.327Z,39.20
2019-03-19T23:09:52.705Z,39.07
2019-03-19T23:12:24.789Z,38.50
2019-03-19T23:14:55.135Z,35.27
2019-03-19T23:17:25.526Z,37.07
2019-03-19T23:19:57.487Z,37.63
2019-03-19T23:22:28.838Z,38.40
2019-03-19T23:24:59.591Z,38.30
2019-03-19T23:27:30.209Z,39.20
2019-03-19T23:30:00.639Z,38.83
2019-03-19T23:32:32.587Z,38.20
2019-03-19T23:35:02.974Z,38.20
2019-03-19T23:37:33.514Z,40.13
2019-03-19T23:40:04.139Z,39.77
2019-03-19T23:42:34.544Z,40.07
2019-03-19T23:45:05.694Z,41.33
2019-03-19T23:47:36.123Z,40.10
2019-03-19T23:50:08.341Z,39.50
2019-03-19T23:52:38.942Z,42.17
2019-03-19T23:55:10.216Z,43.23
2019-03-19T23:57:40.762Z,41.07
